createdAt,value
2023-03-08T00:02:01.973Z,12.17
2023-03-08T00:04:28.676Z,10.33
2023-03-08T00:06:55.388Z,12.03
2023-03-08T00:09:22.096Z,9.20
2023-03-08T00:11:48.797Z,12.40
2023-03-08T00:14:15.574Z,11.23
2023-03-08T00:16:42.287Z,11.20
2023-03-08T00:19:08.995Z,10.20
2023-03-08T00:21:35.707Z,10.60
2023-03-08T00:24:02.491Z,11.53
2023-03-08T00:26:29.223Z,10.23
2023-03-08T00:28:56.053Z,13.80
2023-03-08T00:31:23.072Z,14.30
2023-03-08T00:33:53.957Z,11.90
2023-03-08T00:36:21.624Z,9.90
2023-03-08T00:38:48.768Z,10.90
2023-03-08T00:41:15.978Z,12.03
2023-03-08T00:43:43.376Z,11.00
2023-03-08T00:46:11.607Z,13.23
2023-03-08T00:48:38.533Z,14.30
2023-03-08T00:51:05.637Z,15.03
2023-03-08T00:53:32.397Z,12.93
2023-03-08T00:56:00.544Z,10.80
2023-03-08T00:58:30.392Z,14.90
2023-03-08T01:00:58.911Z,12.10
2023-03-08T01:03:27.517Z,13.87
2023-03-08T01:05:56.740Z,13.50
2023-03-08T01:08:25.758Z,11.97
2023-03-08T01:10:58.451Z,11.00
2023-03-08T01:13:33.977Z,10.63
2023-03-08T01:16:01.959Z,10.67
2023-03-08T01:18:29.039Z,11.37
2023-03-08T01:21:02.528Z,12.43
2023-03-08T01:23:30.083Z,11.87
2023-03-08T01:26:01.414Z,12.13
2023-03-08T01:28:28.719Z,10.73
2023-03-08T01:31:02.309Z,11.40
2023-03-08T01:33:29.194Z,10.90
2023-03-08T01:35:56.609Z,11.83
2023-03-08T01:38:24.480Z,11.80
2023-03-08T01:40:57.284Z,11.17
2023-03-08T01:43:27.496Z,12.17
2023-03-08T01:46:19.523Z,12.63
2023-03-08T01:49:09.613Z,9.90
2023-03-08T01:51:45.914Z,9.53
2023-03-08T01:54:25.826Z,11.73
2023-03-08T01:56:55.920Z,10.53
2023-03-08T01:59:24.164Z,10.67
2023-03-08T02:01:51.835Z,10.03
2023-03-08T02:04:19.197Z,12.53
2023-03-08T02:06:46.743Z,10.37
2023-03-08T02:09:14.390Z,10.03
2023-03-08T02:11:43.197Z,10.77
2023-03-08T02:14:11.509Z,11.77
2023-03-08T02:16:39.681Z,10.07
2023-03-08T02:19:15.450Z,11.17
2023-03-08T02:21:42.880Z,9.40
2023-03-08T02:24:24.645Z,9.90
2023-03-08T02:27:06.879Z,12.30
2023-03-08T02:29:34.279Z,11.47
2023-03-08T02:32:02.244Z,9.60
2023-03-08T02:34:30.074Z,11.67
2023-03-08T02:36:57.474Z,9.57
2023-03-08T02:39:25.355Z,13.90
2023-03-08T02:41:52.802Z,10.50
2023-03-08T02:44:20.155Z,11.37
2023-03-08T02:46:47.993Z,10.83
2023-03-08T02:49:15.819Z,8.77
2023-03-08T02:51:43.507Z,9.80
2023-03-08T02:54:11.355Z,13.07
2023-03-08T02:56:39.046Z,10.57
2023-03-08T02:59:06.720Z,9.80
2023-03-08T03:01:34.158Z,12.00
2023-03-08T03:04:01.427Z,15.53
2023-03-08T03:06:28.747Z,10.53
2023-03-08T03:08:55.831Z,11.70
2023-03-08T03:11:23.294Z,9.90
2023-03-08T03:13:59.227Z,12.57
2023-03-08T03:16:27.096Z,8.90
2023-03-08T03:18:55.489Z,10.83
2023-03-08T03:21:23.112Z,8.70
2023-03-08T03:23:50.140Z,10.00
2023-03-08T03:26:19.776Z,14.20
2023-03-08T03:28:46.594Z,13.97
2023-03-08T03:31:19.796Z,9.60
2023-03-08T03:33:47.768Z,12.93
2023-03-08T03:36:16.645Z,10.57
2023-03-08T03:38:43.664Z,10.53
2023-03-08T03:41:22.002Z,13.80
2023-03-08T03:43:49.703Z,11.30
2023-03-08T03:46:18.646Z,9.53
2023-03-08T03:48:46.083Z,11.63
2023-03-08T03:51:18.995Z,11.83
2023-03-08T03:53:45.934Z,14.90
2023-03-08T03:56:15.536Z,11.50
2023-03-08T03:58:42.979Z,11.33
2023-03-08T04:01:11.620Z,15.13
2023-03-08T04:03:38.587Z,14.20
2023-03-08T04:06:10.240Z,11.43
2023-03-08T04:08:42.127Z,12.30
2023-03-08T04:11:15.319Z,11.67
2023-03-08T04:13:42.402Z,12.03
2023-03-08T04:16:11.665Z,11.10
2023-03-08T04:18:38.619Z,11.93
2023-03-08T04:21:06.070Z,10.13
2023-03-08T04:23:33.443Z,13.00
2023-03-08T04:26:00.838Z,12.40
2023-03-08T04:28:27.758Z,13.10
2023-03-08T04:30:54.630Z,12.00
2023-03-08T04:33:21.621Z,13.33
2023-03-08T04:35:48.497Z,10.57
2023-03-08T04:38:15.520Z,9.50
2023-03-08T04:41:08.051Z,11.80
2023-03-08T04:43:35.176Z,11.00
2023-03-08T04:46:02.500Z,10.07
2023-03-08T04:48:30.031Z,10.37
2023-03-08T04:50:59.539Z,11.23
2023-03-08T04:53:26.620Z,9.93
2023-03-08T04:55:54.101Z,9.63
2023-03-08T04:58:21.651Z,10.47
2023-03-08T05:00:48.749Z,9.30
2023-03-08T05:03:15.486Z,10.17
2023-03-08T05:05:50.053Z,8.83
2023-03-08T05:08:17.071Z,9.83
2023-03-08T05:10:55.428Z,9.77
2023-03-08T05:13:22.170Z,13.73
2023-03-08T05:15:48.906Z,9.40
2023-03-08T05:18:15.828Z,7.37
2023-03-08T05:20:42.572Z,9.20
2023-03-08T05:23:10.100Z,11.70
2023-03-08T05:25:42.778Z,9.43
2023-03-08T05:28:09.553Z,11.50
2023-03-08T05:30:36.225Z,13.10
2023-03-08T05:33:02.989Z,12.80
2023-03-08T05:35:29.759Z,8.90
2023-03-08T05:37:56.620Z,7.83
2023-03-08T05:40:23.335Z,10.17
2023-03-08T05:42:50.034Z,10.10
2023-03-08T05:45:16.855Z,8.33
2023-03-08T05:47:43.687Z,11.20
2023-03-08T05:50:11.915Z,9.87
2023-03-08T05:52:38.971Z,7.00
2023-03-08T05:55:06.234Z,8.40
2023-03-08T05:57:32.934Z,8.83
2023-03-08T05:59:59.665Z,8.00
2023-03-08T06:02:28.442Z,6.70
2023-03-08T06:04:55.182Z,7.70
2023-03-08T06:07:22.016Z,6.20
2023-03-08T06:09:48.797Z,6.60
2023-03-08T06:12:15.454Z,6.90
2023-03-08T06:14:42.184Z,3.70
2023-03-08T06:17:08.910Z,7.67
2023-03-08T06:19:36.358Z,5.03
2023-03-08T06:22:03.006Z,5.70
2023-03-08T06:24:29.689Z,5.57
2023-03-08T06:26:56.371Z,4.23
2023-03-08T06:29:23.370Z,4.30
2023-03-08T06:31:50.086Z,2.93
2023-03-08T06:34:17.038Z,4.50
2023-03-08T06:36:43.982Z,2.43
2023-03-08T06:39:10.693Z,4.30
2023-03-08T06:41:37.449Z,2.67
2023-03-08T06:44:04.165Z,2.90
2023-03-08T06:46:30.917Z,2.93
2023-03-08T06:48:57.749Z,4.50
2023-03-08T06:51:24.502Z,2.60
2023-03-08T06:53:51.396Z,2.57
2023-03-08T06:56:18.429Z,5.20
2023-03-08T06:58:45.568Z,3.20
2023-03-08T07:01:13.736Z,2.13
2023-03-08T07:03:40.849Z,2.53
2023-03-08T07:06:10.142Z,2.10
2023-03-08T07:08:37.847Z,2.07
2023-03-08T07:11:06.670Z,3.77
2023-03-08T07:13:33.453Z,2.80
2023-03-08T07:16:05.060Z,3.23
2023-03-08T07:18:31.825Z,1.63
2023-03-08T07:20:59.026Z,3.63
2023-03-08T07:23:25.930Z,2.20
2023-03-08T07:25:52.687Z,3.43
2023-03-08T07:28:19.397Z,1.63
2023-03-08T07:30:50.549Z,1.73
2023-03-08T07:33:18.123Z,4.60
2023-03-08T07:35:44.858Z,1.10
2023-03-08T07:38:15.867Z,1.57
2023-03-08T07:40:42.993Z,1.23
2023-03-08T07:43:09.862Z,0.70
2023-03-08T07:45:39.438Z,1.90
2023-03-08T07:48:06.710Z,1.43
2023-03-08T07:50:33.473Z,3.40
2023-03-08T07:53:01.022Z,1.53
2023-03-08T07:55:28.734Z,0.73
2023-03-08T07:57:55.748Z,3.07
2023-03-08T08:00:22.941Z,2.20
2023-03-08T08:02:49.781Z,1.00
2023-03-08T08:05:16.783Z,1.10
2023-03-08T08:07:46.978Z,2.10
2023-03-08T08:10:14.142Z,0.50
2023-03-08T08:12:40.921Z,1.97
2023-03-08T08:15:07.879Z,4.17
2023-03-08T08:17:34.562Z,2.50
2023-03-08T08:20:01.284Z,0.60
2023-03-08T08:22:28.025Z,1.23
2023-03-08T08:24:54.762Z,0.80
2023-03-08T08:27:21.512Z,1.20
2023-03-08T08:29:50.839Z,0.80
2023-03-08T08:32:17.670Z,0.70
2023-03-08T08:34:44.450Z,1.63
2023-03-08T08:37:11.224Z,0.70
2023-03-08T08:39:38.199Z,1.20
2023-03-08T08:42:04.999Z,2.73
2023-03-08T08:44:31.750Z,1.50
2023-03-08T08:46:58.862Z,1.30
2023-03-08T08:49:25.645Z,1.47
2023-03-08T08:51:53.347Z,2.37
2023-03-08T08:54:20.156Z,1.97
2023-03-08T08:56:47.002Z,1.60
2023-03-08T08:59:16.331Z,3.97
2023-03-08T09:01:47.077Z,1.37
2023-03-08T09:04:16.636Z,1.50
2023-03-08T09:06:43.616Z,1.50
2023-03-08T09:09:10.298Z,1.20
2023-03-08T09:11:48.431Z,1.50
2023-03-08T09:14:20.435Z,1.80
2023-03-08T09:16:47.149Z,1.30
2023-03-08T09:19:13.859Z,1.30
2023-03-08T09:21:40.576Z,1.60
2023-03-08T09:24:10.032Z,1.50
2023-03-08T09:26:36.800Z,1.27
2023-03-08T09:29:07.764Z,1.23
2023-03-08T09:31:36.863Z,1.27
2023-03-08T09:34:08.982Z,2.40
2023-03-08T09:36:39.457Z,1.43
2023-03-08T09:39:08.808Z,1.20
2023-03-08T09:41:44.617Z,3.50
2023-03-08T09:44:32.461Z,1.40
2023-03-08T09:47:13.194Z,0.90
2023-03-08T09:49:43.213Z,2.10
2023-03-08T09:52:38.716Z,1.80
2023-03-08T09:55:15.682Z,1.47
2023-03-08T09:57:52.495Z,1.60
2023-03-08T10:00:22.529Z,1.93
2023-03-08T10:03:14.094Z,1.73
2023-03-08T10:05:48.146Z,1.17
2023-03-08T10:08:30.429Z,1.70
2023-03-08T10:11:01.546Z,0.90
2023-03-08T10:13:30.309Z,1.33
2023-03-08T10:16:06.535Z,0.93
2023-03-08T10:18:47.162Z,0.90
2023-03-08T10:21:17.924Z,1.23
2023-03-08T10:23:47.739Z,0.90
2023-03-08T10:26:16.159Z,1.23
2023-03-08T10:28:42.920Z,3.03
2023-03-08T10:31:21.333Z,1.10
2023-03-08T10:33:52.326Z,1.10
2023-03-08T10:36:25.497Z,1.10
2023-03-08T10:39:04.608Z,0.77
2023-03-08T10:41:36.646Z,1.23
2023-03-08T10:44:04.078Z,1.20
2023-03-08T10:46:32.871Z,1.90
2023-03-08T10:49:28.832Z,2.10
2023-03-08T10:51:58.772Z,2.20
2023-03-08T10:54:27.556Z,1.50
2023-03-08T10:56:56.185Z,1.30
2023-03-08T10:59:34.731Z,1.00
2023-03-08T11:02:12.749Z,1.13
2023-03-08T11:04:51.446Z,1.77
2023-03-08T11:07:24.217Z,1.00
2023-03-08T11:09:51.250Z,1.20
2023-03-08T11:12:25.680Z,1.43
2023-03-08T11:14:53.287Z,0.90
2023-03-08T11:17:39.300Z,1.33
2023-03-08T11:20:11.062Z,1.60
2023-03-08T11:22:50.247Z,1.10
2023-03-08T11:25:22.865Z,3.27
2023-03-08T11:28:29.109Z,1.20
2023-03-08T11:31:00.122Z,0.97
2023-03-08T11:33:53.234Z,1.33
2023-03-08T11:36:40.276Z,1.47
2023-03-08T11:39:28.532Z,1.80
2023-03-08T11:42:16.649Z,1.33
2023-03-08T11:44:55.077Z,1.70
2023-03-08T11:47:51.471Z,2.93
2023-03-08T11:50:20.966Z,1.30
2023-03-08T11:53:05.572Z,3.53
2023-03-08T11:55:41.874Z,2.23
2023-03-08T11:58:11.328Z,1.23
2023-03-08T12:00:41.793Z,1.80
2023-03-08T12:03:29.284Z,1.50
2023-03-08T12:06:03.276Z,1.13
2023-03-08T12:09:02.518Z,5.53
2023-03-08T12:11:31.797Z,1.70
2023-03-08T12:14:23.241Z,1.40
2023-03-08T12:17:02.629Z,2.70
2023-03-08T12:19:44.014Z,4.83
2023-03-08T12:22:31.035Z,3.87
2023-03-08T12:25:09.516Z,1.60
2023-03-08T12:27:57.864Z,3.23
2023-03-08T12:31:15.389Z,1.93
2023-03-08T12:33:54.125Z,4.57
2023-03-08T12:36:22.632Z,2.27
2023-03-08T12:38:56.621Z,3.27
2023-03-08T12:41:27.336Z,2.57
2023-03-08T12:44:02.142Z,2.17
2023-03-08T12:46:52.873Z,2.30
2023-03-08T12:49:38.939Z,2.30
2023-03-08T12:52:07.530Z,4.00
2023-03-08T12:54:35.578Z,2.60
2023-03-08T12:57:14.511Z,3.90
2023-03-08T12:59:41.542Z,1.73
2023-03-08T13:02:25.783Z,3.30
2023-03-08T13:05:18.281Z,2.50
2023-03-08T13:07:52.690Z,3.00
2023-03-08T13:10:39.515Z,2.40
2023-03-08T13:13:21.107Z,2.27
2023-03-08T13:16:35.493Z,2.00
2023-03-08T13:19:14.822Z,2.07
2023-03-08T13:22:08.649Z,3.80
2023-03-08T13:24:47.405Z,1.97
2023-03-08T13:27:30.117Z,2.57
2023-03-08T13:30:21.159Z,2.83
2023-03-08T13:32:49.232Z,2.67
2023-03-08T13:35:17.590Z,2.97
2023-03-08T13:37:53.314Z,3.10
2023-03-08T13:40:21.799Z,2.43
2023-03-08T13:43:02.202Z,2.80
2023-03-08T13:45:29.577Z,2.60
2023-03-08T13:47:59.977Z,2.53
2023-03-08T13:50:36.067Z,3.73
2023-03-08T13:53:07.669Z,2.60
2023-03-08T13:55:38.759Z,2.83
2023-03-08T13:58:05.913Z,2.40
2023-03-08T14:00:35.769Z,2.80
2023-03-08T14:03:06.577Z,2.87
2023-03-08T14:05:40.940Z,2.33
2023-03-08T14:08:19.694Z,2.90
2023-03-08T14:10:49.178Z,3.40
2023-03-08T14:13:26.832Z,3.30
2023-03-08T14:15:57.920Z,2.70
2023-03-08T14:18:33.343Z,3.00
2023-03-08T14:21:21.809Z,3.73
2023-03-08T14:23:51.877Z,3.30
2023-03-08T14:26:24.416Z,3.20
2023-03-08T14:29:11.531Z,3.27
2023-03-08T14:31:39.407Z,3.27
2023-03-08T14:34:19.919Z,3.77
2023-03-08T14:36:59.422Z,3.93
2023-03-08T14:39:28.328Z,4.10
2023-03-08T14:41:56.114Z,4.30
2023-03-08T14:44:28.444Z,4.17
2023-03-08T14:46:58.708Z,3.30
2023-03-08T14:49:29.230Z,3.20
2023-03-08T14:51:56.518Z,4.20
2023-03-08T14:54:36.487Z,4.03
2023-03-08T14:57:25.579Z,3.37
2023-03-08T14:59:53.476Z,3.63
2023-03-08T15:02:20.280Z,3.67
2023-03-08T15:04:47.061Z,4.53
2023-03-08T15:07:20.082Z,4.80
2023-03-08T15:09:51.432Z,5.23
2023-03-08T15:12:18.413Z,5.37
2023-03-08T15:14:45.228Z,4.80
2023-03-08T15:17:12.033Z,6.00
2023-03-08T15:19:38.770Z,6.90
2023-03-08T15:22:06.823Z,4.60
2023-03-08T15:24:34.002Z,5.67
2023-03-08T15:27:00.738Z,6.80
2023-03-08T15:29:33.586Z,4.93
2023-03-08T15:32:00.710Z,6.10
2023-03-08T15:34:28.595Z,6.80
2023-03-08T15:36:55.890Z,8.20
2023-03-08T15:39:22.609Z,5.33
2023-03-08T15:41:49.444Z,5.10
2023-03-08T15:44:16.529Z,8.70
2023-03-08T15:46:43.293Z,5.93
2023-03-08T15:49:10.859Z,7.80
2023-03-08T15:51:38.291Z,6.10
2023-03-08T15:54:06.329Z,6.57
2023-03-08T15:56:33.516Z,6.13
2023-03-08T15:59:00.339Z,5.93
2023-03-08T16:01:27.842Z,7.27
2023-03-08T16:03:57.675Z,7.50
2023-03-08T16:06:24.992Z,6.67
2023-03-08T16:08:51.865Z,6.17
2023-03-08T16:11:22.308Z,5.50
2023-03-08T16:13:51.187Z,5.33
2023-03-08T16:16:19.006Z,5.77
2023-03-08T16:18:46.002Z,7.20
2023-03-08T16:21:13.136Z,5.57
2023-03-08T16:23:41.692Z,8.03
2023-03-08T16:26:16.772Z,6.90
2023-03-08T16:28:45.730Z,7.00
2023-03-08T16:31:13.313Z,6.97
2023-03-08T16:33:40.361Z,5.90
2023-03-08T16:36:07.633Z,6.40
2023-03-08T16:38:34.447Z,5.70
2023-03-08T16:41:12.130Z,6.90
2023-03-08T16:43:46.736Z,6.03
2023-03-08T16:46:16.630Z,6.77
2023-03-08T16:48:43.473Z,6.00
2023-03-08T16:51:14.394Z,6.00
2023-03-08T16:53:41.117Z,7.23
2023-03-08T16:56:08.200Z,5.93
2023-03-08T16:58:35.004Z,6.53
2023-03-08T17:01:01.720Z,6.23
2023-03-08T17:03:28.422Z,6.17
2023-03-08T17:05:55.174Z,6.17
2023-03-08T17:08:21.861Z,5.97
2023-03-08T17:10:48.554Z,6.47
2023-03-08T17:13:15.323Z,5.50
2023-03-08T17:15:43.814Z,6.40
2023-03-08T17:18:11.050Z,7.33
2023-03-08T17:20:42.201Z,7.30
2023-03-08T17:23:10.892Z,7.87
2023-03-08T17:25:41.071Z,6.93
2023-03-08T17:28:08.667Z,6.67
2023-03-08T17:30:36.110Z,6.80
2023-03-08T17:33:02.835Z,8.57
2023-03-08T17:35:29.972Z,11.63
2023-03-08T17:37:56.876Z,11.37
2023-03-08T17:40:23.748Z,10.43
2023-03-08T17:42:50.718Z,9.67
2023-03-08T17:45:18.288Z,10.70
2023-03-08T17:47:45.179Z,11.47
2023-03-08T17:50:15.724Z,10.00
2023-03-08T17:52:42.563Z,8.90
2023-03-08T17:55:11.189Z,8.73
2023-03-08T17:57:38.209Z,8.30
2023-03-08T18:00:06.391Z,8.23
2023-03-08T18:02:33.615Z,7.37
2023-03-08T18:05:00.511Z,7.63
2023-03-08T18:07:29.127Z,7.43
2023-03-08T18:09:55.867Z,7.87
2023-03-08T18:12:22.840Z,6.93
2023-03-08T18:14:52.447Z,9.43
2023-03-08T18:17:20.973Z,8.93
2023-03-08T18:19:48.057Z,7.70
2023-03-08T18:22:15.692Z,8.90
2023-03-08T18:24:42.913Z,12.63
2023-03-08T18:27:09.823Z,7.83
2023-03-08T18:29:37.415Z,8.53
2023-03-08T18:32:04.852Z,8.47
2023-03-08T18:34:31.756Z,8.47
2023-03-08T18:36:58.869Z,8.83
2023-03-08T18:39:27.103Z,9.53
2023-03-08T18:41:56.789Z,8.60
2023-03-08T18:44:24.704Z,11.10
2023-03-08T18:46:51.548Z,9.17
2023-03-08T18:49:18.555Z,8.50
2023-03-08T18:51:45.770Z,8.30
2023-03-08T18:54:15.946Z,9.50
2023-03-08T18:56:43.077Z,8.57
2023-03-08T18:59:13.268Z,8.53
2023-03-08T19:01:40.802Z,11.80
2023-03-08T19:04:08.095Z,11.23
2023-03-08T19:06:36.153Z,11.10
2023-03-08T19:09:17.045Z,10.03
2023-03-08T19:11:45.255Z,10.87
2023-03-08T19:14:12.941Z,10.30
2023-03-08T19:16:39.898Z,9.07
2023-03-08T19:19:10.000Z,12.03
2023-03-08T19:21:41.235Z,11.23
2023-03-08T19:24:08.914Z,10.50
2023-03-08T19:26:37.995Z,11.47
2023-03-08T19:29:23.735Z,11.03
2023-03-08T19:31:53.441Z,10.27
2023-03-08T19:34:22.553Z,9.53
2023-03-08T19:36:50.267Z,11.03
2023-03-08T19:39:20.379Z,11.50
2023-03-08T19:41:52.935Z,11.40
2023-03-08T19:44:20.218Z,10.77
2023-03-08T19:46:47.516Z,10.30
2023-03-08T19:49:26.372Z,11.00
2023-03-08T19:51:55.175Z,10.87
2023-03-08T19:54:23.419Z,11.63
2023-03-08T19:56:50.724Z,11.57
2023-03-08T19:59:17.713Z,11.40
2023-03-08T20:01:44.595Z,13.30
2023-03-08T20:04:12.351Z,11.33
2023-03-08T20:06:43.522Z,13.17
2023-03-08T20:09:13.998Z,10.97
2023-03-08T20:11:41.149Z,13.10
2023-03-08T20:14:08.482Z,12.87
2023-03-08T20:16:35.403Z,13.00
2023-03-08T20:19:02.618Z,12.27
2023-03-08T20:21:31.497Z,11.70
2023-03-08T20:23:59.602Z,12.17
2023-03-08T20:26:32.986Z,12.97
2023-03-08T20:29:00.549Z,13.10
2023-03-08T20:31:29.032Z,12.17
2023-03-08T20:33:56.115Z,12.00
2023-03-08T20:36:23.682Z,13.20
2023-03-08T20:38:50.474Z,12.60
2023-03-08T20:41:22.527Z,12.33
2023-03-08T20:43:51.550Z,15.80
2023-03-08T20:46:20.605Z,14.27
2023-03-08T20:48:47.699Z,14.00
2023-03-08T20:51:17.109Z,15.73
2023-03-08T20:53:45.253Z,14.20
2023-03-08T20:56:14.684Z,13.97
2023-03-08T20:58:41.816Z,12.47
2023-03-08T21:01:17.789Z,13.93
2023-03-08T21:03:45.484Z,12.97
2023-03-08T21:06:18.756Z,13.90
2023-03-08T21:08:46.175Z,16.23
2023-03-08T21:11:13.248Z,10.77
2023-03-08T21:13:40.257Z,12.60
2023-03-08T21:16:09.809Z,13.63
2023-03-08T21:18:36.525Z,13.30
2023-03-08T21:21:03.269Z,15.50
2023-03-08T21:23:30.074Z,12.90
2023-03-08T21:26:00.423Z,13.67
2023-03-08T21:28:27.378Z,14.37
2023-03-08T21:30:54.408Z,16.47
2023-03-08T21:33:21.173Z,13.00
2023-03-08T21:35:47.901Z,11.80
2023-03-08T21:38:14.633Z,14.27
2023-03-08T21:40:42.701Z,11.67
2023-03-08T21:43:09.453Z,12.23
2023-03-08T21:45:41.677Z,13.40
2023-03-08T21:48:09.333Z,14.27
2023-03-08T21:50:39.845Z,12.00
2023-03-08T21:53:07.995Z,13.20
2023-03-08T21:55:38.598Z,11.77
2023-03-08T21:58:05.590Z,12.83
2023-03-08T22:00:32.614Z,11.60
2023-03-08T22:05:38.424Z,12.43
2023-03-08T22:08:05.309Z,13.90
2023-03-08T22:10:32.066Z,13.43
2023-03-08T22:12:59.264Z,11.07
2023-03-08T22:15:26.020Z,13.47
2023-03-08T22:17:53.092Z,13.00
2023-03-08T22:20:20.197Z,12.20
2023-03-08T22:22:47.363Z,11.73
2023-03-08T22:25:14.068Z,13.10
2023-03-08T22:27:40.874Z,12.10
2023-03-08T22:30:10.747Z,12.00
2023-03-08T22:32:41.949Z,10.97
2023-03-08T22:35:12.619Z,12.03
2023-03-08T22:37:40.142Z,13.83
2023-03-08T22:40:11.325Z,10.60
2023-03-08T22:42:38.007Z,11.33
2023-03-08T22:45:05.466Z,11.60
2023-03-08T22:47:32.148Z,10.63
2023-03-08T22:49:58.967Z,10.30
2023-03-08T22:52:25.696Z,13.93
2023-03-08T22:54:52.380Z,12.00
2023-03-08T22:57:19.113Z,8.50
2023-03-08T22:59:46.844Z,8.70
2023-03-08T23:02:14.152Z,8.57
2023-03-08T23:04:41.470Z,11.27
2023-03-08T23:07:08.273Z,8.73
2023-03-08T23:09:35.695Z,10.07
2023-03-08T23:12:04.783Z,8.77
2023-03-08T23:14:32.332Z,9.53
2023-03-08T23:16:59.070Z,10.97
2023-03-08T23:19:26.308Z,8.50
2023-03-08T23:21:53.103Z,9.50
2023-03-08T23:24:20.185Z,10.07
2023-03-08T23:26:47.050Z,8.57
2023-03-08T23:29:14.997Z,8.00
2023-03-08T23:31:44.974Z,10.13
2023-03-08T23:34:12.181Z,8.30
2023-03-08T23:36:38.878Z,8.70
2023-03-08T23:39:05.594Z,8.80
2023-03-08T23:41:32.982Z,8.87
2023-03-08T23:44:01.350Z,9.53
2023-03-08T23:46:28.981Z,9.07
2023-03-08T23:48:57.860Z,9.23
2023-03-08T23:51:26.472Z,8.33
2023-03-08T23:53:56.992Z,7.33
2023-03-08T23:56:37.607Z,7.63
2023-03-08T23:59:11.857Z,7.63
